createdAt,value
2022-08-03T00:02:19.789Z,4.60
2022-08-03T00:04:47.768Z,4.40
2022-08-03T00:07:15.704Z,4.60
2022-08-03T00:12:10.998Z,4.50
2022-08-03T00:17:06.092Z,4.30
2022-08-03T00:19:33.677Z,4.10
2022-08-03T00:22:01.305Z,4.20
2022-08-03T00:24:28.991Z,4.20
2022-08-03T00:26:56.511Z,4.30
2022-08-03T00:29:24.197Z,4.30
2022-08-03T00:31:59.256Z,4.40
2022-08-03T00:34:57.878Z,4.10
2022-08-03T00:37:16.497Z,4.30
2022-08-03T00:39:47.029Z,4.60
2022-08-03T00:42:15.734Z,4.20
2022-08-03T00:44:45.021Z,4.30
2022-08-03T00:47:13.116Z,4.10
2022-08-03T00:49:42.488Z,4.10
2022-08-03T00:52:11.379Z,4.10
2022-08-03T00:54:39.469Z,4.10
2022-08-03T00:57:08.649Z,4.10
2022-08-03T00:59:38.231Z,4.10
2022-08-03T01:02:06.707Z,4.00
2022-08-03T01:04:34.397Z,4.20
2022-08-03T01:07:20.088Z,4.30
2022-08-03T01:10:13.605Z,3.70
2022-08-03T01:12:58.141Z,5.20
2022-08-03T01:15:39.058Z,4.50
2022-08-03T01:18:14.877Z,4.20
2022-08-03T01:20:47.436Z,4.30
2022-08-03T01:23:34.643Z,4.40
2022-08-03T01:26:32.216Z,4.70
2022-08-03T01:29:08.706Z,4.60
2022-08-03T01:32:59.977Z,5.10
2022-08-03T01:34:34.907Z,4.40
2022-08-03T01:37:07.588Z,4.40
2022-08-03T01:39:38.710Z,3.80
2022-08-03T01:42:10.351Z,4.50
2022-08-03T01:44:43.007Z,4.20
2022-08-03T01:47:12.929Z,4.90
2022-08-03T01:49:45.396Z,4.50
2022-08-03T01:52:17.375Z,3.90
2022-08-03T01:54:49.571Z,4.60
2022-08-03T01:57:19.378Z,5.10
2022-08-03T01:59:51.045Z,4.70
2022-08-03T02:02:32.955Z,4.40
2022-08-03T02:05:05.940Z,4.40
2022-08-03T02:07:42.057Z,4.40
2022-08-03T02:10:13.557Z,4.60
2022-08-03T02:12:46.093Z,4.30
2022-08-03T02:15:17.507Z,4.40
2022-08-03T02:17:47.502Z,4.30
2022-08-03T02:20:17.023Z,4.50
2022-08-03T02:22:46.683Z,4.30
2022-08-03T02:25:16.505Z,4.20
2022-08-03T02:28:20.852Z,4.40
2022-08-03T02:30:54.122Z,4.50
2022-08-03T02:33:27.160Z,4.30
2022-08-03T02:35:57.292Z,4.50
2022-08-03T02:38:31.554Z,4.60
2022-08-03T02:41:01.003Z,4.50
2022-08-03T02:44:05.376Z,5.00
2022-08-03T02:46:23.849Z,4.70
2022-08-03T02:48:54.825Z,5.00
2022-08-03T02:51:24.848Z,4.30
2022-08-03T02:53:55.703Z,4.70
2022-08-03T02:56:25.857Z,4.60
2022-08-03T02:58:54.762Z,4.60
2022-08-03T03:01:24.751Z,5.30
2022-08-03T03:03:53.943Z,4.70
2022-08-03T03:06:26.955Z,4.30
2022-08-03T03:11:29.230Z,3.80
2022-08-03T03:13:57.707Z,3.80
2022-08-03T03:16:29.407Z,3.00
2022-08-03T03:18:59.376Z,2.90
2022-08-03T03:21:29.163Z,2.40
2022-08-03T03:23:58.574Z,2.50
2022-08-03T03:26:26.844Z,2.70
2022-08-03T03:28:55.915Z,3.30
2022-08-03T03:31:24.525Z,3.30
2022-08-03T03:33:52.235Z,3.30
2022-08-03T03:36:19.987Z,3.50
2022-08-03T03:38:47.625Z,3.30
2022-08-03T03:41:15.373Z,3.60
2022-08-03T03:43:44.159Z,3.40
2022-08-03T03:46:13.714Z,3.70
2022-08-03T03:48:41.942Z,3.10
2022-08-03T03:51:10.541Z,3.40
2022-08-03T03:53:38.747Z,2.70
2022-08-03T03:58:35.557Z,2.80
2022-08-03T04:01:03.390Z,3.50
2022-08-03T04:03:31.059Z,3.30
2022-08-03T04:06:17.631Z,3.10
2022-08-03T04:09:01.747Z,3.90
2022-08-03T04:11:36.669Z,3.60
2022-08-03T04:14:09.735Z,3.70
2022-08-03T04:16:43.775Z,3.30
2022-08-03T04:19:23.349Z,4.00
2022-08-03T04:21:57.152Z,4.30
2022-08-03T04:24:31.086Z,4.00
2022-08-03T04:27:01.045Z,4.00
2022-08-03T04:29:31.579Z,4.10
2022-08-03T04:32:01.193Z,4.10
2022-08-03T04:34:32.560Z,4.20
2022-08-03T04:37:05.606Z,3.80
2022-08-03T04:39:34.019Z,3.90
2022-08-03T04:42:17.101Z,4.20
2022-08-03T04:44:47.352Z,3.90
2022-08-03T04:47:16.885Z,4.70
2022-08-03T04:49:45.753Z,4.50
2022-08-03T04:52:13.800Z,4.50
2022-08-03T04:57:18.161Z,4.00
2022-08-03T05:00:02.218Z,4.30
2022-08-03T05:02:32.501Z,4.20
2022-08-03T05:05:01.482Z,4.10
2022-08-03T05:07:36.113Z,4.30
2022-08-03T05:10:14.952Z,4.50
2022-08-03T05:15:13.740Z,4.30
2022-08-03T05:20:10.758Z,3.60
2022-08-03T05:22:38.988Z,4.20
2022-08-03T05:25:07.376Z,4.20
2022-08-03T05:27:35.140Z,4.00
2022-08-03T05:30:27.281Z,4.80
2022-08-03T05:32:51.653Z,4.30
2022-08-03T05:35:57.322Z,4.80
2022-08-03T05:38:07.565Z,4.50
2022-08-03T05:40:37.763Z,4.40
2022-08-03T05:43:07.693Z,4.80
2022-08-03T05:48:06.109Z,4.60
2022-08-03T05:50:33.708Z,4.80
2022-08-03T05:53:01.940Z,4.80
2022-08-03T05:57:57.217Z,3.80
2022-08-03T06:00:25.823Z,4.30
2022-08-03T06:02:53.511Z,3.90
2022-08-03T06:05:21.190Z,3.60
2022-08-03T06:07:48.916Z,4.20
2022-08-03T06:10:37.133Z,4.20
2022-08-03T06:13:05.283Z,4.50
2022-08-03T06:15:35.394Z,4.50
2022-08-03T06:18:03.129Z,4.10
2022-08-03T06:20:30.683Z,4.00
2022-08-03T06:23:00.404Z,3.20
2022-08-03T06:25:29.430Z,3.90
2022-08-03T06:27:57.428Z,3.90
2022-08-03T06:30:25.672Z,4.30
2022-08-03T06:32:53.480Z,4.10
2022-08-03T06:35:21.367Z,4.90
2022-08-03T06:37:51.511Z,4.80
2022-08-03T06:40:29.153Z,4.00
2022-08-03T06:43:02.378Z,4.40
2022-08-03T06:45:32.214Z,4.10
2022-08-03T06:48:12.127Z,4.60
2022-08-03T06:50:42.579Z,4.70
2022-08-03T06:53:18.151Z,4.80
2022-08-03T06:55:52.407Z,4.70
2022-08-03T06:58:22.939Z,4.20
2022-08-03T07:00:51.072Z,4.50
2022-08-03T07:05:47.589Z,4.50
2022-08-03T07:08:15.978Z,4.40
2022-08-03T07:10:45.046Z,4.40
2022-08-03T07:13:13.124Z,5.00
2022-08-03T07:15:55.728Z,4.60
2022-08-03T07:18:29.666Z,4.70
2022-08-03T07:20:59.198Z,5.10
2022-08-03T07:23:27.123Z,5.20
2022-08-03T07:28:23.823Z,4.30
2022-08-03T07:33:18.809Z,4.30
2022-08-03T07:35:46.547Z,3.80
2022-08-03T07:38:14.124Z,4.60
2022-08-03T07:40:46.009Z,4.50
2022-08-03T07:43:14.087Z,4.60
2022-08-03T07:45:41.651Z,4.10
2022-08-03T07:48:12.353Z,4.20
2022-08-03T07:50:40.849Z,3.80
2022-08-03T07:53:08.607Z,3.80
2022-08-03T07:55:36.211Z,4.20
2022-08-03T07:58:09.719Z,4.60
2022-08-03T08:00:38.247Z,4.50
2022-08-03T08:03:06.383Z,4.90
2022-08-03T08:05:34.527Z,4.80
2022-08-03T08:10:30.170Z,5.10
2022-08-03T08:12:57.994Z,4.30
2022-08-03T08:15:26.057Z,4.50
2022-08-03T08:17:58.747Z,3.90
2022-08-03T08:20:31.489Z,5.00
2022-08-03T08:23:19.898Z,4.10
2022-08-03T08:25:56.091Z,4.60
2022-08-03T08:28:30.528Z,5.00
2022-08-03T08:31:02.417Z,4.90
2022-08-03T08:33:47.981Z,5.20
2022-08-03T08:36:18.425Z,5.00
2022-08-03T08:38:46.104Z,4.50
2022-08-03T08:41:15.657Z,4.80
2022-08-03T08:43:44.253Z,4.40
2022-08-03T08:46:22.988Z,3.80
2022-08-03T08:48:54.341Z,4.20
2022-08-03T08:51:24.245Z,4.30
2022-08-03T08:54:14.101Z,3.90
2022-08-03T08:56:43.559Z,4.60
2022-08-03T08:59:11.946Z,4.10
2022-08-03T09:01:49.234Z,3.80
2022-08-03T09:04:35.611Z,3.30
2022-08-03T09:07:29.147Z,3.80
2022-08-03T09:10:19.338Z,3.40
2022-08-03T09:13:03.472Z,3.40
2022-08-03T09:16:01.146Z,3.80
2022-08-03T09:18:35.787Z,3.40
2022-08-03T09:21:34.528Z,2.70
2022-08-03T09:24:06.494Z,3.60
2022-08-03T09:26:38.225Z,3.80
2022-08-03T09:29:15.038Z,3.00
2022-08-03T09:31:45.935Z,3.40
2022-08-03T09:34:16.112Z,3.40
2022-08-03T09:36:48.934Z,3.80
2022-08-03T09:39:41.339Z,4.20
2022-08-03T09:42:30.497Z,3.30
2022-08-03T09:45:12.054Z,4.10
2022-08-03T09:47:56.932Z,4.10
2022-08-03T09:51:13.694Z,4.30
2022-08-03T09:54:17.551Z,4.10
2022-08-03T09:59:27.147Z,4.10
2022-08-03T10:02:03.895Z,4.40
2022-08-03T10:04:48.256Z,4.60
2022-08-03T10:07:15.904Z,4.50
2022-08-03T10:09:55.374Z,3.80
2022-08-03T10:12:25.016Z,4.60
2022-08-03T10:14:53.856Z,4.10
2022-08-03T10:17:23.430Z,4.70
2022-08-03T10:19:51.852Z,4.70
2022-08-03T10:22:24.269Z,4.90
2022-08-03T10:25:10.554Z,4.20
2022-08-03T10:27:47.562Z,4.20
2022-08-03T10:30:16.991Z,4.60
2022-08-03T10:32:53.268Z,4.40
2022-08-03T10:35:23.201Z,3.80
2022-08-03T10:38:01.037Z,4.30
2022-08-03T10:40:47.914Z,5.30
2022-08-03T10:43:23.037Z,4.10
2022-08-03T10:45:52.136Z,3.90
2022-08-03T10:48:21.121Z,4.30
2022-08-03T10:50:53.432Z,4.20
2022-08-03T10:53:54.246Z,4.40
2022-08-03T10:57:06.330Z,4.40
2022-08-03T11:00:00.508Z,4.10
2022-08-03T11:03:30.501Z,4.20
2022-08-03T11:06:27.311Z,3.80
2022-08-03T11:09:22.591Z,3.80
2022-08-03T11:12:05.355Z,3.70
2022-08-03T11:14:54.712Z,4.60
2022-08-03T11:17:26.463Z,4.00
2022-08-03T11:19:57.390Z,3.80
2022-08-03T11:22:46.241Z,3.50
2022-08-03T11:25:53.801Z,3.90
2022-08-03T11:28:38.836Z,4.10
2022-08-03T11:31:48.519Z,4.00
2022-08-03T11:34:16.806Z,3.40
2022-08-03T11:37:24.630Z,4.10
2022-08-03T11:39:58.410Z,4.10
2022-08-03T11:42:29.386Z,3.90
2022-08-03T11:45:01.756Z,3.80
2022-08-03T11:47:30.986Z,4.00
2022-08-03T11:50:02.985Z,4.00
2022-08-03T11:52:40.637Z,3.70
2022-08-03T11:55:14.456Z,4.10
2022-08-03T11:59:17.091Z,3.60
2022-08-03T12:00:35.185Z,3.90
2022-08-03T12:03:11.930Z,4.20
2022-08-03T12:05:41.832Z,4.00
2022-08-03T12:08:27.676Z,3.60
2022-08-03T12:10:58.598Z,4.10
2022-08-03T12:14:28.865Z,3.70
2022-08-03T12:16:24.137Z,3.40
2022-08-03T12:18:56.748Z,4.10
2022-08-03T12:21:25.237Z,4.10
2022-08-03T12:24:00.069Z,4.30
2022-08-03T12:26:43.223Z,3.60
2022-08-03T12:29:21.522Z,4.10
2022-08-03T12:31:49.641Z,3.80
2022-08-03T12:34:17.432Z,3.90
2022-08-03T12:36:56.987Z,4.00
2022-08-03T12:39:27.989Z,3.80
2022-08-03T12:41:57.910Z,4.00
2022-08-03T12:44:34.871Z,4.00
2022-08-03T12:47:06.871Z,4.30
2022-08-03T12:49:48.096Z,4.30
2022-08-03T12:52:18.177Z,3.20
2022-08-03T12:55:00.378Z,4.30
2022-08-03T12:57:46.190Z,4.00
2022-08-03T13:00:21.433Z,4.50
2022-08-03T13:03:38.348Z,3.80
2022-08-03T13:05:48.589Z,3.80
2022-08-03T13:10:49.050Z,4.20
2022-08-03T13:13:17.550Z,3.90
2022-08-03T13:15:47.918Z,3.40
2022-08-03T13:18:17.322Z,4.30
2022-08-03T13:20:46.216Z,3.90
2022-08-03T13:23:22.416Z,3.80
2022-08-03T13:25:55.567Z,4.20
2022-08-03T13:30:54.253Z,4.10
2022-08-03T13:33:22.325Z,4.40
2022-08-03T13:35:50.029Z,4.40
2022-08-03T13:40:46.174Z,4.00
2022-08-03T13:43:17.336Z,4.00
2022-08-03T13:48:37.264Z,4.20
2022-08-03T13:51:11.829Z,4.10
2022-08-03T13:53:52.388Z,4.00
2022-08-03T13:56:24.682Z,4.10
2022-08-03T13:59:00.544Z,4.30
2022-08-03T14:01:54.333Z,4.10
2022-08-03T14:06:55.134Z,4.30
2022-08-03T14:09:27.354Z,4.60
2022-08-03T14:12:07.078Z,4.00
2022-08-03T14:14:39.447Z,4.10
2022-08-03T14:17:12.089Z,4.00
2022-08-03T14:19:53.005Z,4.00
2022-08-03T14:22:30.774Z,3.90
2022-08-03T14:25:03.676Z,3.40
2022-08-03T14:27:37.986Z,4.70
2022-08-03T14:30:16.385Z,4.30
2022-08-03T14:32:49.055Z,4.00
2022-08-03T14:35:22.524Z,4.20
2022-08-03T14:37:53.462Z,4.10
2022-08-03T14:40:22.662Z,4.60
2022-08-03T14:42:51.374Z,4.40
2022-08-03T14:45:20.431Z,4.80
2022-08-03T14:50:28.751Z,4.50
2022-08-03T14:50:46.803Z,4.40
2022-08-03T14:53:23.690Z,4.60
2022-08-03T14:55:53.897Z,4.00
2022-08-03T14:58:24.684Z,4.30
2022-08-03T15:00:55.878Z,4.70
2022-08-03T15:03:26.320Z,3.90
2022-08-03T15:05:57.574Z,4.60
2022-08-03T15:08:28.689Z,3.10
2022-08-03T15:10:58.115Z,4.10
2022-08-03T15:13:28.138Z,4.50
2022-08-03T15:16:01.385Z,4.60
2022-08-03T15:18:32.744Z,4.30
2022-08-03T15:21:02.469Z,4.20
2022-08-03T15:23:30.643Z,3.90
2022-08-03T15:26:06.513Z,4.10
2022-08-03T15:28:48.795Z,3.90
2022-08-03T15:31:24.477Z,3.90
2022-08-03T15:33:57.604Z,3.70
2022-08-03T15:36:29.935Z,3.90
2022-08-03T15:39:02.069Z,3.90
2022-08-03T15:41:34.079Z,4.00
2022-08-03T15:44:07.469Z,4.10
2022-08-03T15:46:37.681Z,3.80
2022-08-03T15:49:08.745Z,4.00
2022-08-03T15:51:38.923Z,3.70
2022-08-03T15:54:07.811Z,3.70
2022-08-03T15:56:37.047Z,3.30
2022-08-03T15:59:13.420Z,4.00
2022-08-03T16:01:42.208Z,4.10
2022-08-03T16:04:14.226Z,4.20
2022-08-03T16:06:42.686Z,4.00
2022-08-03T16:09:24.137Z,4.00
2022-08-03T16:12:03.004Z,3.50
2022-08-03T16:14:39.391Z,3.70
2022-08-03T16:17:16.606Z,3.40
2022-08-03T16:19:46.716Z,3.80
2022-08-03T16:22:14.710Z,3.70
2022-08-03T16:24:43.407Z,3.60
2022-08-03T16:27:36.754Z,3.70
2022-08-03T16:30:00.657Z,3.70
2022-08-03T16:32:29.079Z,4.30
2022-08-03T16:34:57.892Z,4.00
2022-08-03T16:37:51.873Z,4.00
2022-08-03T16:40:17.352Z,3.70
2022-08-03T16:42:48.498Z,4.10
2022-08-03T16:45:17.033Z,3.60
2022-08-03T16:47:45.779Z,3.30
2022-08-03T16:50:19.559Z,3.00
2022-08-03T16:52:48.783Z,3.20
2022-08-03T16:55:42.922Z,3.10
2022-08-03T16:58:07.452Z,3.40
2022-08-03T17:00:41.550Z,3.40
2022-08-03T17:03:18.632Z,3.30
2022-08-03T17:05:51.118Z,2.80
2022-08-03T17:08:26.824Z,3.30
2022-08-03T17:10:56.345Z,2.80
2022-08-03T17:13:27.588Z,3.30
2022-08-03T17:16:10.623Z,2.80
2022-08-03T17:18:53.036Z,2.60
2022-08-03T17:21:32.470Z,2.80
2022-08-03T17:29:18.683Z,3.10
2022-08-03T17:31:53.417Z,2.90
2022-08-03T17:34:26.451Z,2.50
2022-08-03T17:37:04.730Z,2.70
2022-08-03T17:42:31.026Z,2.60
2022-08-03T17:45:03.773Z,3.00
2022-08-03T17:47:42.304Z,3.20
2022-08-03T17:50:25.202Z,2.90
2022-08-03T17:53:07.888Z,3.60
2022-08-03T17:55:59.382Z,3.80
2022-08-03T17:58:53.314Z,3.30
2022-08-03T18:02:00.460Z,3.40
2022-08-03T18:04:41.586Z,3.40
2022-08-03T18:07:13.062Z,3.40
2022-08-03T18:10:04.202Z,2.80
2022-08-03T18:12:42.250Z,2.80
2022-08-03T18:15:21.355Z,3.00
2022-08-03T18:18:02.316Z,3.50
2022-08-03T18:20:41.071Z,3.50
2022-08-03T18:23:20.377Z,2.90
2022-08-03T18:25:58.258Z,3.50
2022-08-03T18:28:28.946Z,4.10
2022-08-03T18:30:58.462Z,3.40
2022-08-03T18:34:18.323Z,3.70
2022-08-03T18:36:21.980Z,3.60
2022-08-03T18:39:03.233Z,3.50
2022-08-03T18:41:34.949Z,4.20
2022-08-03T18:44:07.829Z,3.80
2022-08-03T18:47:07.176Z,3.70
2022-08-03T18:50:02.599Z,3.90
2022-08-03T18:52:53.024Z,3.80
2022-08-03T18:55:33.077Z,4.30
2022-08-03T18:58:15.996Z,4.10
2022-08-03T19:00:59.961Z,3.60
2022-08-03T19:03:41.272Z,4.10
2022-08-03T19:06:23.212Z,3.70
2022-08-03T19:09:00.368Z,4.00
2022-08-03T19:12:14.044Z,4.00
2022-08-03T19:14:41.660Z,3.60
2022-08-03T19:17:13.209Z,3.70
2022-08-03T19:19:45.469Z,3.70
2022-08-03T19:25:03.888Z,3.70
2022-08-03T19:27:33.276Z,3.80
2022-08-03T19:30:14.077Z,3.70
2022-08-03T19:32:51.299Z,3.40
2022-08-03T19:35:46.676Z,3.80
2022-08-03T19:38:08.904Z,4.00
2022-08-03T19:40:44.489Z,3.60
2022-08-03T19:43:57.526Z,3.80
2022-08-03T19:46:30.495Z,3.60
2022-08-03T19:49:10.599Z,3.70
2022-08-03T19:52:00.840Z,3.90
2022-08-03T19:54:52.914Z,3.60
2022-08-03T19:57:25.160Z,3.60
2022-08-03T19:59:55.090Z,3.70
2022-08-03T20:02:26.278Z,3.30
2022-08-03T20:04:57.627Z,3.60
2022-08-03T20:07:31.969Z,3.50
2022-08-03T20:10:02.528Z,4.00
2022-08-03T20:12:38.909Z,3.00
2022-08-03T20:15:10.532Z,3.70
2022-08-03T20:17:54.499Z,3.80
2022-08-03T20:20:32.751Z,3.80
2022-08-03T20:23:07.167Z,3.10
2022-08-03T20:25:59.357Z,3.20
2022-08-03T20:28:50.286Z,3.40
2022-08-03T20:31:36.376Z,3.50
2022-08-03T20:34:06.458Z,3.00
2022-08-03T20:36:35.005Z,3.30
2022-08-03T20:41:50.767Z,3.20
2022-08-03T20:44:18.346Z,3.10
2022-08-03T20:47:00.456Z,2.70
2022-08-03T20:49:45.734Z,2.30
2022-08-03T20:52:18.824Z,3.00
2022-08-03T20:54:50.018Z,3.00
2022-08-03T20:57:18.650Z,2.70
2022-08-03T20:59:51.435Z,3.00
2022-08-03T21:02:29.603Z,2.70
2022-08-03T21:05:03.065Z,2.70
2022-08-03T21:08:04.936Z,3.00
2022-08-03T21:10:42.130Z,3.20
2022-08-03T21:13:10.024Z,3.80
2022-08-03T21:13:12.721Z,3.40
2022-08-03T21:13:33.245Z,2.60
2022-08-03T21:16:14.251Z,3.10
2022-08-03T21:18:52.827Z,3.00
2022-08-03T21:21:24.240Z,3.10
2022-08-03T21:23:55.425Z,3.10
2022-08-03T21:26:26.056Z,3.20
2022-08-03T21:28:56.825Z,2.70
2022-08-03T21:31:26.706Z,3.60
2022-08-03T21:34:01.605Z,3.50
2022-08-03T21:36:36.296Z,3.70
2022-08-03T21:39:09.545Z,3.50
2022-08-03T21:41:40.519Z,3.60
2022-08-03T21:44:12.722Z,4.00
2022-08-03T21:46:44.126Z,3.50
2022-08-03T21:50:07.378Z,3.40
2022-08-03T21:52:10.838Z,4.10
2022-08-03T21:54:47.608Z,3.80
2022-08-03T21:57:16.433Z,3.40
2022-08-03T22:00:03.671Z,3.70
2022-08-03T22:02:33.928Z,3.30
2022-08-03T22:05:05.114Z,3.50
2022-08-03T22:07:38.282Z,3.70
2022-08-03T22:10:08.499Z,3.10
2022-08-03T22:12:37.477Z,3.20
2022-08-03T22:15:09.707Z,3.40
2022-08-03T22:17:55.439Z,2.80
2022-08-03T22:20:31.767Z,3.60
2022-08-03T22:23:09.077Z,4.60
2022-08-03T22:25:40.540Z,3.60
2022-08-03T22:28:13.408Z,3.80
2022-08-03T22:30:45.336Z,3.70
2022-08-03T22:33:16.637Z,4.20
2022-08-03T22:35:49.397Z,3.40
2022-08-03T22:38:20.484Z,3.90
2022-08-03T22:40:52.587Z,3.90
2022-08-03T22:43:25.497Z,3.50
2022-08-03T22:46:11.223Z,3.60
2022-08-03T22:48:41.807Z,4.00
2022-08-03T22:51:11.264Z,4.00
2022-08-03T22:53:40.794Z,3.10
2022-08-03T22:56:08.984Z,3.40
2022-08-03T22:58:37.114Z,3.50
2022-08-03T23:01:09.807Z,3.20
2022-08-03T23:04:01.122Z,3.30
2022-08-03T23:06:37.621Z,3.60
2022-08-03T23:09:12.420Z,3.40
2022-08-03T23:11:45.975Z,3.80
2022-08-03T23:14:17.082Z,3.40
2022-08-03T23:16:46.960Z,3.30
2022-08-03T23:19:25.222Z,3.40
2022-08-03T23:22:02.659Z,3.50
2022-08-03T23:24:36.811Z,3.30
2022-08-03T23:27:07.417Z,3.60
2022-08-03T23:29:44.086Z,3.40
2022-08-03T23:32:13.676Z,3.60
2022-08-03T23:35:01.766Z,3.20
2022-08-03T23:37:33.228Z,3.40
2022-08-03T23:40:03.237Z,3.80
2022-08-03T23:42:32.001Z,3.40
2022-08-03T23:45:06.032Z,3.70
2022-08-03T23:47:46.059Z,3.80
2022-08-03T23:50:15.708Z,3.40
2022-08-03T23:55:38.423Z,3.80
2022-08-03T23:58:48.480Z,4.10
